Time;durP1;ratioP1;P1;durP2;ratioP2;P2;SDS_P1;SDS_P2;PMS_P1;PMS_P2;Temp;Humidity;BMP_temperature;BMP_pressure;BME280_temperature;BME280_humidity;BME280_pressure;Samples;Min_cycle;Max_cycle;Signal;HPM_P1;HPM_P2
2022/11/14 00:00:01;;;;;;;12.60;5.95;;;4.60;86.40;;;;;;5058976;28;20064;-58
2022/11/14 00:02:49;;;;;;;12.25;6.18;;;4.60;86.40;;;;;;5045462;28;20059;-60
2022/11/14 00:05:41;;;;;;;12.88;6.25;;;4.60;86.40;;;;;;5059250;28;20051;-60
2022/11/14 00:08:27;;;;;;;12.90;6.78;;;4.60;86.40;;;;;;5058691;28;20048;-60
2022/11/14 00:11:12;;;;;;;10.13;6.03;;;4.50;86.30;;;;;;5060007;28;20059;-60
2022/11/14 00:13:58;;;;;;;13.13;6.28;;;4.50;86.40;;;;;;5059039;28;20043;-59
2022/11/14 00:16:44;;;;;;;10.10;5.65;;;4.50;86.30;;;;;;5059601;28;20055;-60
2022/11/14 00:19:30;;;;;;;11.57;5.85;;;4.50;86.30;;;;;;5054005;28;20072;-58
2022/11/14 00:22:15;;;;;;;12.77;6.10;;;4.40;86.30;;;;;;5055107;28;20052;-60
2022/11/14 00:25:01;;;;;;;10.43;5.85;;;4.40;86.30;;;;;;5059315;28;20110;-59
2022/11/14 00:27:50;;;;;;;9.38;5.28;;;4.40;86.40;;;;;;5059606;28;20130;-59
2022/11/14 00:30:37;;;;;;;11.63;5.68;;;4.40;86.50;;;;;;5057757;28;20118;-60
2022/11/14 00:33:22;;;;;;;11.68;6.28;;;4.40;86.40;;;;;;5054080;28;20618;-60
2022/11/14 00:36:12;;;;;;;11.23;6.65;;;4.40;86.30;;;;;;5056217;28;20044;-60
2022/11/14 00:39:04;;;;;;;9.98;5.50;;;4.40;86.30;;;;;;5058007;28;20120;-60
2022/11/14 00:41:50;;;;;;;10.32;5.80;;;4.30;86.30;;;;;;5057465;28;20052;-59
2022/11/14 00:44:35;;;;;;;11.15;5.65;;;4.30;86.20;;;;;;5057401;28;20055;-60
2022/11/14 00:47:22;;;;;;;11.52;5.95;;;4.30;86.30;;;;;;5058944;28;20051;-60
2022/11/14 00:50:08;;;;;;;10.38;5.47;;;4.20;86.40;;;;;;5059047;28;20048;-60
2022/11/14 00:52:54;;;;;;;9.57;5.75;;;4.30;86.30;;;;;;5059894;28;20056;-60
2022/11/14 00:55:40;;;;;;;10.93;6.43;;;4.30;86.20;;;;;;5056837;28;20107;-60
2022/11/14 00:58:26;;;;;;;9.10;5.38;;;4.30;86.20;;;;;;5056619;28;20055;-62
2022/11/14 01:01:11;;;;;;;11.77;5.65;;;4.20;86.30;;;;;;5056098;28;20052;-61
2022/11/14 01:03:58;;;;;;;10.18;5.72;;;4.20;86.30;;;;;;5058841;28;20048;-60
2022/11/14 01:06:43;;;;;;;11.60;5.78;;;4.20;86.50;;;;;;5055777;28;20059;-58
2022/11/14 01:09:29;;;;;;;9.60;5.38;;;4.10;86.50;;;;;;5055762;28;20076;-60
2022/11/14 01:12:15;;;;;;;11.10;5.47;;;4.20;86.30;;;;;;5054300;28;20411;-59
2022/11/14 01:15:00;;;;;;;10.52;5.22;;;4.20;86.30;;;;;;5057389;28;20040;-58
2022/11/14 01:17:47;;;;;;;11.02;5.68;;;4.00;86.40;;;;;;5055134;28;20201;-58
2022/11/14 01:20:34;;;;;;;11.27;5.78;;;4.00;86.40;;;;;;5056411;28;20082;-59
2022/11/14 01:23:20;;;;;;;10.82;5.45;;;4.10;86.50;;;;;;5056180;28;20127;-60
2022/11/14 01:26:07;;;;;;;10.02;5.53;;;4.10;86.40;;;;;;5054679;28;20103;-61
2022/11/14 01:28:53;;;;;;;9.10;5.13;;;4.10;86.40;;;;;;5055620;28;20412;-59
2022/11/14 01:31:38;;;;;;;9.43;5.20;;;4.10;86.50;;;;;;5057089;28;20060;-61
2022/11/14 01:34:25;;;;;;;10.05;5.22;;;4.00;86.50;;;;;;5048797;28;20105;-60
2022/11/14 01:37:12;;;;;;;8.30;4.35;;;4.10;86.30;;;;;;5056075;28;20062;-59
2022/11/14 01:39:57;;;;;;;8.27;4.57;;;4.00;86.30;;;;;;5057828;28;20590;-59
2022/11/14 01:42:43;;;;;;;10.07;4.55;;;4.00;86.40;;;;;;5049908;28;20060;-60
2022/11/14 01:45:50;;;;;;;9.73;4.75;;;4.00;86.30;;;;;;5053626;28;20044;-58
2022/11/14 01:48:41;;;;;;;10.10;4.60;;;4.00;86.40;;;;;;5056384;28;20067;-59
2022/11/14 01:51:33;;;;;;;7.95;4.75;;;3.90;86.30;;;;;;5058147;28;20118;-60
2022/11/14 01:54:25;;;;;;;8.57;4.90;;;3.90;86.30;;;;;;5055394;28;20051;-60
2022/11/14 01:57:13;;;;;;;9.07;4.90;;;3.90;86.40;;;;;;5058891;28;21261;-60
2022/11/14 02:00:02;;;;;;;9.65;4.45;;;4.00;86.30;;;;;;5056927;28;20577;-60
2022/11/14 02:02:48;;;;;;;8.98;4.65;;;3.90;86.40;;;;;;5057140;28;20055;-60
2022/11/14 02:05:35;;;;;;;8.18;4.28;;;4.00;86.30;;;;;;5050448;28;20137;-60
2022/11/14 02:08:22;;;;;;;9.88;4.30;;;3.90;86.30;;;;;;5056590;28;20398;-59
2022/11/14 02:11:10;;;;;;;9.05;4.30;;;3.90;86.40;;;;;;5057352;28;20047;-61
2022/11/14 02:13:57;;;;;;;9.25;4.75;;;3.80;86.40;;;;;;5053655;28;20051;-60
2022/11/14 02:16:43;;;;;;;7.95;4.15;;;3.80;86.50;;;;;;5060811;28;20093;-60
2022/11/14 02:19:41;;;;;;;10.55;4.63;;;3.80;86.40;;;;;;5059612;28;20089;-61
2022/11/14 02:22:28;;;;;;;8.00;4.22;;;3.80;86.40;;;;;;5061973;28;20418;-60
2022/11/14 02:25:16;;;;;;;11.15;5.10;;;3.70;86.20;;;;;;5061807;28;20099;-60
2022/11/14 02:28:02;;;;;;;10.98;5.20;;;3.80;86.30;;;;;;5057616;28;20098;-60
2022/11/14 02:30:48;;;;;;;10.40;5.55;;;3.80;86.20;;;;;;5061435;28;20056;-59
2022/11/14 02:33:34;;;;;;;9.95;5.13;;;3.70;86.40;;;;;;5060684;28;20194;-61
2022/11/14 02:36:19;;;;;;;8.93;5.13;;;3.80;86.30;;;;;;5060062;28;20044;-59
2022/11/14 02:39:06;;;;;;;7.75;3.92;;;3.80;86.40;;;;;;5060660;28;20052;-60
2022/11/14 02:41:52;;;;;;;8.88;4.28;;;3.70;86.40;;;;;;5061753;28;20607;-60
2022/11/14 02:44:40;;;;;;;7.40;4.13;;;3.70;86.50;;;;;;5059489;28;20126;-61
2022/11/14 02:47:26;;;;;;;8.50;3.67;;;3.70;86.50;;;;;;5056611;28;20051;-59
2022/11/14 02:50:12;;;;;;;9.95;4.60;;;3.70;86.40;;;;;;5057443;28;20149;-59
2022/11/14 02:52:57;;;;;;;8.55;4.45;;;3.70;86.50;;;;;;5058510;28;20485;-59
2022/11/14 02:55:44;;;;;;;7.80;3.78;;;3.70;86.40;;;;;;5059756;28;20117;-60
2022/11/14 02:58:30;;;;;;;10.38;4.30;;;3.70;86.50;;;;;;5051879;28;20064;-59
2022/11/14 03:01:17;;;;;;;10.73;4.38;;;3.60;86.50;;;;;;5056898;28;20043;-60
2022/11/14 03:04:03;;;;;;;9.35;4.20;;;3.60;86.50;;;;;;5057527;28;20067;-60
2022/11/14 03:06:49;;;;;;;10.82;4.20;;;3.60;86.50;;;;;;5058907;28;20064;-60
2022/11/14 03:09:34;;;;;;;8.88;4.57;;;3.60;86.40;;;;;;5057689;28;20052;-60
2022/11/14 03:12:21;;;;;;;9.60;4.82;;;3.50;86.50;;;;;;5053971;28;20048;-61
2022/11/14 03:15:08;;;;;;;9.05;4.68;;;3.50;86.50;;;;;;5058031;28;20051;-60
2022/11/14 03:17:53;;;;;;;8.52;4.15;;;3.50;86.60;;;;;;5058466;28;20078;-59
2022/11/14 03:20:39;;;;;;;7.93;4.15;;;3.50;86.50;;;;;;5052626;28;20044;-60
2022/11/14 03:23:24;;;;;;;7.90;3.67;;;3.50;86.50;;;;;;5057213;28;20059;-60
2022/11/14 03:26:11;;;;;;;9.40;4.57;;;3.50;86.40;;;;;;5055618;28;20546;-59
2022/11/14 03:28:58;;;;;;;8.02;4.30;;;3.50;86.40;;;;;;5057018;28;20044;-60
2022/11/14 03:31:43;;;;;;;10.13;4.60;;;3.50;86.20;;;;;;5059822;28;20044;-60
2022/11/14 03:34:29;;;;;;;9.60;4.30;;;3.40;86.20;;;;;;5057520;28;20047;-60
2022/11/14 03:37:14;;;;;;;8.40;4.40;;;3.40;86.40;;;;;;5052562;28;20101;-60
2022/11/14 03:39:59;;;;;;;8.65;4.85;;;3.40;86.20;;;;;;5061242;28;20561;-60
2022/11/14 03:42:45;;;;;;;9.88;5.45;;;3.40;86.30;;;;;;5058639;28;20158;-59
2022/11/14 03:45:32;;;;;;;7.53;4.15;;;3.40;86.30;;;;;;5057154;28;20483;-60
2022/11/14 03:48:17;;;;;;;8.60;4.78;;;3.40;86.20;;;;;;5059581;28;20039;-60
2022/11/14 03:51:03;;;;;;;9.52;4.72;;;3.40;86.20;;;;;;5059860;28;20052;-60
2022/11/14 03:53:49;;;;;;;9.82;4.40;;;3.40;86.10;;;;;;5056217;28;20128;-61
2022/11/14 03:56:34;;;;;;;8.35;4.35;;;3.40;86.10;;;;;;5055281;28;20080;-60
2022/11/14 03:59:19;;;;;;;9.88;5.03;;;3.30;86.20;;;;;;5057020;28;20052;-59
2022/11/14 04:02:06;;;;;;;10.07;4.80;;;3.30;86.20;;;;;;5059442;28;20146;-60
2022/11/14 04:04:52;;;;;;;8.52;4.90;;;3.30;86.10;;;;;;5058759;28;20051;-59
2022/11/14 04:07:38;;;;;;;9.70;4.70;;;3.30;86.20;;;;;;5059447;28;20052;-59
2022/11/14 04:10:23;;;;;;;7.15;4.22;;;3.20;86.20;;;;;;5050401;28;20429;-60
2022/11/14 04:13:08;;;;;;;8.85;4.63;;;3.20;86.20;;;;;;5056737;28;20051;-61
2022/11/14 04:15:55;;;;;;;9.23;4.90;;;3.20;86.10;;;;;;5054570;28;20087;-60
2022/11/14 04:18:42;;;;;;;10.13;4.68;;;3.20;86.20;;;;;;5053567;28;20053;-59
2022/11/14 04:21:28;;;;;;;8.80;4.35;;;3.20;86.20;;;;;;5049520;28;20078;-60
2022/11/14 04:24:13;;;;;;;11.25;4.82;;;3.20;86.30;;;;;;5056465;28;20145;-60
2022/11/14 04:26:59;;;;;;;8.60;4.43;;;3.20;86.20;;;;;;5053341;28;20529;-60
2022/11/14 04:29:44;;;;;;;8.25;4.15;;;3.10;86.30;;;;;;5057386;28;20056;-59
2022/11/14 04:32:30;;;;;;;8.18;4.00;;;3.10;86.20;;;;;;5057129;28;20052;-60
2022/11/14 04:35:17;;;;;;;7.95;4.00;;;3.10;86.30;;;;;;5054061;28;20525;-60
2022/11/14 04:38:02;;;;;;;8.77;3.95;;;3.10;86.20;;;;;;5054863;28;20529;-59
2022/11/14 04:40:51;;;;;;;10.00;4.45;;;3.10;86.20;;;;;;5053912;28;20110;-60
2022/11/14 04:43:37;;;;;;;7.88;4.30;;;3.10;86.10;;;;;;5054048;28;20078;-60
2022/11/14 04:46:22;;;;;;;8.55;4.50;;;3.10;86.20;;;;;;5056442;28;20067;-59
2022/11/14 04:49:08;;;;;;;7.53;3.83;;;3.10;86.20;;;;;;5055780;28;20059;-59
2022/11/14 04:51:55;;;;;;;7.80;4.10;;;3.10;86.10;;;;;;5056566;28;20063;-59
2022/11/14 04:54:41;;;;;;;6.57;3.80;;;3.10;86.20;;;;;;5055926;28;20128;-60
2022/11/14 04:57:26;;;;;;;9.75;4.45;;;3.10;86.10;;;;;;5056559;28;20094;-60
2022/11/14 05:00:13;;;;;;;8.27;4.30;;;3.00;86.20;;;;;;5052482;28;20456;-59
2022/11/14 05:02:59;;;;;;;7.72;4.50;;;3.00;86.30;;;;;;5055500;28;20051;-61
2022/11/14 05:05:45;;;;;;;7.72;3.75;;;3.10;86.30;;;;;;5050165;28;20051;-60
2022/11/14 05:08:32;;;;;;;8.30;4.32;;;3.20;86.20;;;;;;5058575;28;20091;-61
2022/11/14 05:11:19;;;;;;;11.07;4.45;;;3.20;86.20;;;;;;5049209;28;20179;-59
2022/11/14 05:14:05;;;;;;;10.80;4.30;;;3.10;86.30;;;;;;5055293;28;20059;-60
2022/11/14 05:16:50;;;;;;;7.93;4.25;;;3.10;86.30;;;;;;5057082;28;20044;-60
2022/11/14 05:19:36;;;;;;;9.32;4.38;;;3.10;86.40;;;;;;5057216;28;20106;-60
2022/11/14 05:22:21;;;;;;;9.13;4.40;;;3.10;86.40;;;;;;5055212;28;20067;-59
2022/11/14 05:25:10;;;;;;;8.00;4.30;;;3.10;86.40;;;;;;5054492;28;20070;-59
2022/11/14 05:27:56;;;;;;;8.65;4.25;;;3.10;86.30;;;;;;5056568;28;20144;-59
2022/11/14 05:30:42;;;;;;;9.85;4.57;;;3.00;86.30;;;;;;5058525;28;20553;-59
2022/11/14 05:33:27;;;;;;;7.40;4.35;;;3.00;86.50;;;;;;5051454;28;20151;-59
2022/11/14 05:36:15;;;;;;;9.80;4.53;;;3.00;86.50;;;;;;5054626;28;20414;-61
2022/11/14 05:39:01;;;;;;;7.45;4.30;;;3.10;86.70;;;;;;5053235;28;20431;-60
2022/11/14 05:41:48;;;;;;;8.90;3.85;;;3.10;86.90;;;;;;5055602;28;20060;-59
2022/11/14 05:44:33;;;;;;;10.27;4.88;;;3.10;87.20;;;;;;5056622;28;20118;-60
2022/11/14 05:47:19;;;;;;;8.73;4.38;;;3.10;87.00;;;;;;5057065;28;20051;-58
2022/11/14 05:50:05;;;;;;;11.13;4.47;;;3.10;87.10;;;;;;5054533;28;20056;-60
2022/11/14 05:52:51;;;;;;;9.15;4.70;;;3.10;87.30;;;;;;5057095;28;20055;-60
2022/11/14 05:55:36;;;;;;;9.23;4.93;;;3.10;87.50;;;;;;5054302;28;20048;-60
2022/11/14 05:58:23;;;;;;;9.40;5.38;;;3.10;87.50;;;;;;5056186;28;20043;-58
2022/11/14 06:01:10;;;;;;;8.32;4.88;;;3.20;87.60;;;;;;5053090;28;20510;-59
2022/11/14 06:03:56;;;;;;;10.35;5.03;;;3.20;87.70;;;;;;5056582;28;20051;-60
2022/11/14 06:06:41;;;;;;;10.77;5.45;;;3.20;87.70;;;;;;5055586;28;20178;-61
2022/11/14 06:09:27;;;;;;;9.32;5.28;;;3.20;87.70;;;;;;5054290;28;20106;-59
2022/11/14 06:12:12;;;;;;;12.38;5.85;;;3.20;87.70;;;;;;5054713;28;20295;-59
2022/11/14 06:14:59;;;;;;;10.05;5.18;;;3.30;87.80;;;;;;5050863;28;20182;-60
2022/11/14 06:17:45;;;;;;;27.40;11.02;;;3.30;87.90;;;;;;5056517;28;20044;-61
2022/11/14 06:20:30;;;;;;;30.05;14.30;;;3.30;87.80;;;;;;5051222;28;20162;-60
2022/11/14 06:23:16;;;;;;;25.92;11.73;;;3.30;87.80;;;;;;5052218;28;20056;-60
2022/11/14 06:26:02;;;;;;;21.00;10.32;;;3.40;87.70;;;;;;5056127;28;20532;-61
2022/11/14 06:28:48;;;;;;;21.40;8.60;;;3.40;87.70;;;;;;5053583;28;20400;-60
2022/11/14 06:31:34;;;;;;;15.45;7.93;;;3.40;87.80;;;;;;5053220;28;20060;-60
2022/11/14 06:34:20;;;;;;;12.13;6.82;;;3.40;88.00;;;;;;5047240;28;20513;-60
2022/11/14 06:37:05;;;;;;;15.07;8.32;;;3.40;88.10;;;;;;5055171;28;20071;-60
2022/11/14 06:39:51;;;;;;;12.73;7.40;;;3.40;88.00;;;;;;5052224;28;20043;-60
2022/11/14 06:42:36;;;;;;;11.40;7.07;;;3.50;88.20;;;;;;5052849;28;20048;-60
2022/11/14 06:45:22;;;;;;;14.13;6.75;;;3.60;88.30;;;;;;5055681;28;20052;-60
2022/11/14 06:48:08;;;;;;;15.15;7.00;;;3.60;87.90;;;;;;5055839;28;20099;-60
2022/11/14 06:50:57;;;;;;;15.07;8.38;;;3.70;88.60;;;;;;5054173;28;20070;-60
2022/11/14 06:53:43;;;;;;;22.15;10.05;;;3.80;89.30;;;;;;5054541;28;20051;-58
2022/11/14 06:56:28;;;;;;;18.17;10.00;;;3.90;89.30;;;;;;5053577;28;20059;-61
2022/11/14 06:59:14;;;;;;;22.40;10.40;;;4.00;89.20;;;;;;5049577;28;20052;-60
2022/11/14 07:01:59;;;;;;;22.50;10.45;;;4.20;89.20;;;;;;5059333;28;20059;-59
2022/11/14 07:04:46;;;;;;;19.58;10.77;;;4.20;89.50;;;;;;5057995;28;20048;-60
2022/11/14 07:07:32;;;;;;;20.75;10.63;;;4.30;89.60;;;;;;5058471;28;20140;-59
2022/11/14 07:10:17;;;;;;;21.75;11.27;;;4.40;90.30;;;;;;5057193;28;20055;-60
2022/11/14 07:13:03;;;;;;;20.23;10.05;;;4.40;90.60;;;;;;5059489;28;20522;-60
2022/11/14 07:15:52;;;;;;;21.10;10.80;;;4.40;90.20;;;;;;5056933;28;20052;-60
2022/11/14 07:18:37;;;;;;;19.42;10.18;;;4.50;90.00;;;;;;5060028;28;20081;-60
2022/11/14 07:21:25;;;;;;;20.48;11.13;;;4.60;90.00;;;;;;5061192;28;20055;-59
2022/11/14 07:24:11;;;;;;;19.38;9.73;;;4.60;90.00;;;;;;5055712;28;20071;-60
2022/11/14 07:26:56;;;;;;;20.83;10.13;;;4.70;89.90;;;;;;5059707;28;20068;-60
2022/11/14 07:29:41;;;;;;;18.75;10.32;;;4.70;89.80;;;;;;5057646;28;20060;-60
2022/11/14 07:32:27;;;;;;;18.00;9.20;;;4.70;89.70;;;;;;5058023;28;20507;-59
2022/11/14 07:35:12;;;;;;;18.55;9.40;;;4.80;89.90;;;;;;5055826;28;20126;-61
2022/11/14 07:38:04;;;;;;;19.60;9.48;;;4.80;89.80;;;;;;5060402;28;20056;-59
2022/11/14 07:40:54;;;;;;;21.95;10.65;;;4.80;90.00;;;;;;5039853;28;20498;-60
2022/11/14 07:43:40;;;;;;;18.13;10.10;;;4.80;90.20;;;;;;5058316;28;20048;-58
2022/11/14 07:46:25;;;;;;;18.85;9.55;;;4.90;90.50;;;;;;5055453;28;20059;-60
2022/11/14 07:49:11;;;;;;;18.63;9.77;;;4.90;90.60;;;;;;5056263;28;20536;-60
2022/11/14 07:52:00;;;;;;;17.35;8.80;;;5.00;90.30;;;;;;5056339;28;20649;-60
2022/11/14 07:54:47;;;;;;;18.15;9.63;;;5.10;90.20;;;;;;5055384;28;20059;-60
2022/11/14 07:57:33;;;;;;;19.58;9.38;;;5.10;90.00;;;;;;5058215;28;20072;-58
2022/11/14 08:00:18;;;;;;;16.27;8.85;;;5.20;90.10;;;;;;5055755;28;20059;-59
2022/11/14 08:03:07;;;;;;;17.08;8.95;;;5.20;90.10;;;;;;5056237;28;20510;-59
2022/11/14 08:05:59;;;;;;;15.77;8.63;;;5.20;90.00;;;;;;5056208;28;20439;-59
2022/11/14 08:08:45;;;;;;;15.95;9.07;;;5.30;89.90;;;;;;5053121;28;20523;-59
2022/11/14 08:11:50;;;;;;;16.27;8.65;;;5.30;89.90;;;;;;5055876;28;22810;-60
2022/11/14 08:14:36;;;;;;;17.55;9.07;;;5.40;89.90;;;;;;5057091;28;20067;-59
2022/11/14 08:17:22;;;;;;;19.55;9.63;;;5.40;90.00;;;;;;5056852;28;20047;-57
2022/11/14 08:20:11;;;;;;;17.00;8.95;;;5.40;89.90;;;;;;5043148;28;20048;-59
2022/11/14 08:23:02;;;;;;;15.85;8.57;;;5.40;90.20;;;;;;5053922;28;20564;-59
2022/11/14 08:25:48;;;;;;;15.90;8.40;;;5.50;90.50;;;;;;5058032;28;20122;-58
2022/11/14 08:28:34;;;;;;;19.98;9.57;;;5.50;90.20;;;;;;5057671;28;20146;-60
2022/11/14 08:31:21;;;;;;;17.05;9.13;;;5.60;90.20;;;;;;5057076;28;20047;-59
2022/11/14 08:34:06;;;;;;;21.50;10.43;;;5.60;90.10;;;;;;5059354;28;20180;-60
2022/11/14 08:36:52;;;;;;;19.52;9.73;;;5.70;90.30;;;;;;5057776;28;20274;-60
2022/11/14 08:39:37;;;;;;;19.27;9.75;;;5.70;90.20;;;;;;5055129;28;20400;-60
2022/11/14 08:42:23;;;;;;;18.80;9.60;;;5.70;90.10;;;;;;5058919;28;20589;-58
2022/11/14 08:45:10;;;;;;;20.00;9.93;;;5.70;90.40;;;;;;5056663;28;20056;-60
2022/11/14 08:47:56;;;;;;;17.58;10.18;;;5.80;90.20;;;;;;5056396;28;20056;-60
2022/11/14 08:50:41;;;;;;;18.27;9.55;;;5.80;90.20;;;;;;5053286;28;20072;-59
2022/11/14 08:53:26;;;;;;;18.05;8.90;;;5.90;90.40;;;;;;5057492;28;20065;-60
2022/11/14 08:56:12;;;;;;;15.85;8.65;;;5.90;90.30;;;;;;5055093;28;20051;-61
2022/11/14 08:58:57;;;;;;;17.92;9.73;;;6.00;90.20;;;;;;5057050;28;20400;-59
2022/11/14 09:01:44;;;;;;;18.83;9.15;;;6.00;90.30;;;;;;5056826;28;20047;-69
2022/11/14 09:04:29;;;;;;;17.33;10.00;;;6.10;90.20;;;;;;5057718;28;20056;-68
2022/11/14 09:07:15;;;;;;;19.75;10.70;;;6.10;90.10;;;;;;5054952;28;20131;-60
2022/11/14 09:10:00;;;;;;;17.48;9.30;;;6.10;90.40;;;;;;5057544;28;20051;-61
2022/11/14 09:12:46;;;;;;;18.77;10.27;;;6.10;90.20;;;;;;5051583;28;20058;-63
2022/11/14 09:15:32;;;;;;;20.13;11.50;;;6.20;90.20;;;;;;5056367;28;20055;-62
2022/11/14 09:18:19;;;;;;;21.70;12.50;;;6.20;90.10;;;;;;5054338;28;20105;-62
2022/11/14 09:21:08;;;;;;;20.17;11.25;;;6.30;90.00;;;;;;5058907;28;20060;-60
2022/11/14 09:23:54;;;;;;;22.00;12.93;;;6.30;89.90;;;;;;5055517;28;20063;-60
2022/11/14 09:26:39;;;;;;;21.98;12.77;;;6.30;89.90;;;;;;5056184;28;20064;-70
2022/11/14 09:29:24;;;;;;;22.42;12.85;;;6.40;89.80;;;;;;5054559;28;20056;-68
2022/11/14 09:32:10;;;;;;;23.40;12.88;;;6.40;89.90;;;;;;5054571;28;20047;-59
2022/11/14 09:34:58;;;;;;;22.08;12.07;;;6.40;89.90;;;;;;5054437;28;20398;-60
2022/11/14 09:37:43;;;;;;;21.00;11.77;;;6.40;89.80;;;;;;5056004;28;20056;-61
2022/11/14 09:40:29;;;;;;;19.30;12.00;;;6.50;89.70;;;;;;5055986;28;20068;-63
2022/11/14 09:43:41;;;;;;;20.50;11.68;;;6.50;89.70;;;;;;5055712;28;20063;-63
2022/11/14 09:46:31;;;;;;;21.58;11.73;;;6.50;89.70;;;;;;5052659;28;20057;-61
2022/11/14 09:49:25;;;;;;;21.08;12.07;;;6.50;89.60;;;;;;5052898;28;20494;-60
2022/11/14 09:52:26;;;;;;;19.90;10.10;;;6.50;89.60;;;;;;5056119;28;20044;-57
2022/11/14 09:55:14;;;;;;;21.50;10.90;;;6.50;89.60;;;;;;5056067;28;20395;-69
2022/11/14 09:58:01;;;;;;;18.85;10.20;;;6.50;89.60;;;;;;5052480;28;20052;-70
2022/11/14 10:00:54;;;;;;;20.60;10.23;;;6.40;89.50;;;;;;5052436;28;20862;-68
2022/11/14 10:03:47;;;;;;;17.27;9.45;;;6.50;89.60;;;;;;5055273;28;20403;-70
2022/11/14 10:06:41;;;;;;;19.10;9.95;;;6.50;89.60;;;;;;5048846;28;20056;-65
2022/11/14 10:09:42;;;;;;;16.90;10.45;;;6.60;89.70;;;;;;5055900;28;20129;-65
2022/11/14 10:12:36;;;;;;;19.90;9.77;;;6.70;89.60;;;;;;5053161;28;20557;-64
2022/11/14 10:15:26;;;;;;;17.77;10.45;;;6.80;89.40;;;;;;5053974;28;20505;-59
2022/11/14 10:18:35;;;;;;;19.48;10.40;;;6.80;89.70;;;;;;5054116;28;20060;-60
2022/11/14 10:21:51;;;;;;;18.02;10.77;;;6.90;89.60;;;;;;5057126;28;20048;-60
2022/11/14 10:25:00;;;;;;;16.67;9.73;;;6.90;89.50;;;;;;5051149;28;20414;-59
2022/11/14 10:27:58;;;;;;;18.65;9.27;;;6.90;89.50;;;;;;5054171;28;20194;-59
2022/11/14 10:30:51;;;;;;;16.48;9.52;;;7.00;89.50;;;;;;5053883;28;20072;-62
2022/11/14 10:33:49;;;;;;;16.67;9.45;;;7.00;89.30;;;;;;5052739;28;20179;-62
2022/11/14 10:36:54;;;;;;;16.27;8.77;;;7.00;89.50;;;;;;5055153;28;20402;-59
2022/11/14 10:39:44;;;;;;;18.73;9.23;;;7.00;89.10;;;;;;5060592;28;20048;-60
2022/11/14 10:42:36;;;;;;;16.92;9.45;;;7.10;88.90;;;;;;5059168;28;20067;-61
2022/11/14 10:45:27;;;;;;;15.73;8.38;;;7.10;89.00;;;;;;5058457;28;20643;-69
2022/11/14 10:48:16;;;;;;;17.52;9.85;;;7.10;88.90;;;;;;5060442;28;20059;-69
2022/11/14 10:51:06;;;;;;;13.70;7.93;;;7.20;89.10;;;;;;5057123;28;20060;-64
2022/11/14 10:54:00;;;;;;;15.55;8.35;;;7.20;89.00;;;;;;5061750;28;20051;-65
2022/11/14 10:56:48;;;;;;;17.45;8.63;;;7.30;89.20;;;;;;5058814;28;20056;-61
2022/11/14 10:59:35;;;;;;;16.20;8.52;;;7.30;88.80;;;;;;5057552;28;20423;-60
2022/11/14 11:02:21;;;;;;;14.80;8.43;;;7.30;88.70;;;;;;5060182;28;20506;-65
2022/11/14 11:05:14;;;;;;;15.27;8.07;;;7.30;88.50;;;;;;5053841;28;20044;-65
2022/11/14 11:14:16;;;;;;;15.70;9.57;;;7.40;88.60;;;;;;5055649;28;20103;-63
2022/11/14 11:17:17;;;;;;;16.92;9.45;;;7.40;88.70;;;;;;5052736;28;20098;-65
2022/11/14 11:20:25;;;;;;;17.77;10.40;;;7.40;88.50;;;;;;5056352;28;20055;-65
2022/11/14 11:23:18;;;;;;;17.35;9.90;;;7.40;88.60;;;;;;5057039;28;20450;-64
2022/11/14 11:26:07;;;;;;;18.88;10.75;;;7.50;88.50;;;;;;5052040;28;20107;-63
2022/11/14 11:29:14;;;;;;;17.50;9.82;;;7.40;88.50;;;;;;5029109;28;20056;-63
2022/11/14 11:32:00;;;;;;;20.70;10.93;;;7.50;88.60;;;;;;5053918;28;20411;-63
2022/11/14 11:34:49;;;;;;;18.55;10.23;;;7.40;88.60;;;;;;5053620;28;20153;-63
2022/11/14 11:37:39;;;;;;;19.88;9.90;;;7.50;88.40;;;;;;5055625;28;20546;-64
2022/11/14 11:40:27;;;;;;;17.70;9.13;;;7.60;88.40;;;;;;5057876;28;20055;-70
2022/11/14 11:43:29;;;;;;;19.40;10.30;;;7.60;88.20;;;;;;5056244;28;20198;-71
2022/11/14 11:46:20;;;;;;;19.40;9.65;;;7.70;88.30;;;;;;5057428;28;20052;-71
2022/11/14 11:49:13;;;;;;;17.27;9.45;;;7.70;88.20;;;;;;5056694;28;20059;-69
2022/11/14 11:52:04;;;;;;;16.88;9.48;;;7.80;88.00;;;;;;5056070;28;20102;-61
2022/11/14 11:54:58;;;;;;;16.63;8.77;;;7.90;87.80;;;;;;5058943;28;20055;-60
2022/11/14 11:57:46;;;;;;;15.48;8.82;;;7.90;87.90;;;;;;5054089;28;20055;-63
2022/11/14 12:00:32;;;;;;;14.80;8.20;;;7.90;88.00;;;;;;5058862;28;20105;-63
2022/11/14 12:03:17;;;;;;;14.75;8.85;;;7.90;88.20;;;;;;5056630;28;20500;-63
2022/11/14 12:06:13;;;;;;;15.82;8.50;;;7.90;88.00;;;;;;5057675;28;20059;-60
2022/11/14 12:09:10;;;;;;;14.95;8.45;;;7.90;88.10;;;;;;5056948;28;20121;-60
2022/11/14 12:12:00;;;;;;;14.55;8.27;;;7.90;88.00;;;;;;5057435;28;20062;-60
2022/11/14 12:15:00;;;;;;;13.93;7.72;;;7.90;88.10;;;;;;5056118;28;20066;-59
2022/11/14 12:18:05;;;;;;;14.20;8.13;;;7.90;88.00;;;;;;5057153;28;20042;-61
2022/11/14 12:21:12;;;;;;;15.18;8.27;;;7.90;88.00;;;;;;5059727;28;20048;-69
2022/11/14 12:24:55;;;;;;;15.88;8.90;;;7.90;88.10;;;;;;5057749;28;20044;-69
2022/11/14 12:27:55;;;;;;;15.10;7.82;;;7.90;88.00;;;;;;5009379;28;20053;-59
2022/11/14 12:30:41;;;;;;;16.08;9.38;;;7.90;88.10;;;;;;5016320;28;20060;-62
2022/11/14 12:33:30;;;;;;;16.80;9.13;;;7.90;88.00;;;;;;5017989;28;20065;-61
2022/11/14 12:36:16;;;;;;;16.63;8.70;;;7.90;87.90;;;;;;5018998;28;20052;-60
2022/11/14 12:39:02;;;;;;;13.60;7.60;;;7.90;88.00;;;;;;5013687;28;20064;-62
2022/11/14 12:41:49;;;;;;;14.65;7.68;;;7.90;88.10;;;;;;5015903;28;20065;-63
2022/11/14 12:44:37;;;;;;;12.75;7.28;;;7.90;87.90;;;;;;5015786;28;20061;-61
2022/11/14 12:47:26;;;;;;;12.02;6.68;;;7.90;88.00;;;;;;5015163;28;20139;-59
2022/11/14 12:50:33;;;;;;;13.65;7.68;;;8.00;88.00;;;;;;5014700;28;20173;-61
2022/11/14 12:53:45;;;;;;;12.27;7.40;;;8.00;87.90;;;;;;5014357;28;20531;-60
2022/11/14 12:57:08;;;;;;;13.85;7.30;;;8.00;88.00;;;;;;5015782;28;20068;-59
2022/11/14 13:00:02;;;;;;;12.43;6.30;;;8.00;87.90;;;;;;5010466;28;20053;-58
2022/11/14 13:03:19;;;;;;;11.02;6.35;;;8.00;87.80;;;;;;5014750;28;20057;-60
2022/11/14 13:06:11;;;;;;;14.20;7.35;;;8.10;87.80;;;;;;5013357;28;20568;-61
2022/11/14 13:09:35;;;;;;;15.48;8.07;;;8.10;87.80;;;;;;5014967;28;20061;-59
2022/11/14 13:22:35;;;;;;;17.02;8.88;;;8.30;87.80;;;;;;5015642;28;20060;-63
2022/11/14 13:25:23;;;;;;;15.75;8.55;;;8.30;87.70;;;;;;5012325;28;20180;-63
2022/11/14 13:28:48;;;;;;;14.35;7.90;;;8.30;87.70;;;;;;5044442;28;20518;-63
2022/11/14 13:31:48;;;;;;;14.13;7.55;;;8.30;87.90;;;;;;5056459;28;20549;-62
2022/11/14 13:34:50;;;;;;;16.60;8.13;;;8.30;87.70;;;;;;5055412;28;20407;-62
2022/11/14 13:38:01;;;;;;;15.75;7.80;;;8.30;87.80;;;;;;5054686;28;20178;-60
2022/11/14 13:40:58;;;;;;;12.77;7.20;;;8.40;87.90;;;;;;5053604;28;20117;-62
2022/11/14 13:43:59;;;;;;;13.05;7.22;;;8.40;87.80;;;;;;5054941;28;20155;-63
2022/11/14 13:46:57;;;;;;;;;;;8.40;87.80;;;;;;5057885;28;20415;-62
2022/11/14 13:49:56;;;;;;;13.63;6.55;;;8.40;87.90;;;;;;5057790;28;20051;-62
2022/11/14 13:52:44;;;;;;;12.73;6.67;;;8.40;87.80;;;;;;5052469;28;20059;-63
2022/11/14 13:55:38;;;;;;;12.40;7.13;;;8.40;87.90;;;;;;5058009;28;20882;-59
2022/11/14 13:58:35;;;;;;;10.48;5.85;;;8.40;87.80;;;;;;5053377;28;20231;-61
2022/11/14 14:01:41;;;;;;;12.10;7.38;;;8.40;87.90;;;;;;5056290;28;20540;-65
2022/11/14 14:04:41;;;;;;;11.48;6.60;;;8.40;87.90;;;;;;5054406;28;20052;-65
2022/11/14 14:07:36;;;;;;;11.60;6.18;;;8.40;88.00;;;;;;5058848;28;20525;-61
2022/11/14 14:10:28;;;;;;;14.00;7.65;;;8.40;87.90;;;;;;5055586;28;20097;-61
2022/11/14 14:13:31;;;;;;;12.07;7.43;;;8.40;88.00;;;;;;5055801;28;20064;-59
2022/11/14 14:16:30;;;;;;;13.13;7.10;;;8.40;88.00;;;;;;5055519;28;20052;-60
2022/11/14 14:19:23;;;;;;;12.93;7.45;;;8.40;88.10;;;;;;5055271;28;20052;-60
2022/11/14 14:22:15;;;;;;;14.27;8.40;;;8.30;88.00;;;;;;5049586;28;20459;-62
2022/11/14 14:25:09;;;;;;;14.43;8.25;;;8.30;88.00;;;;;;5054484;28;20048;-63
2022/11/14 14:28:06;;;;;;;15.45;8.55;;;8.40;88.20;;;;;;5053644;28;20056;-62
2022/11/14 14:31:02;;;;;;;15.80;8.50;;;8.40;88.20;;;;;;5055551;28;20060;-68
2022/11/14 14:33:52;;;;;;;15.65;8.32;;;8.40;88.20;;;;;;5052074;28;20056;-69
2022/11/14 14:36:48;;;;;;;13.35;7.85;;;8.30;88.20;;;;;;5053712;28;20060;-62
2022/11/14 14:39:36;;;;;;;14.43;7.70;;;8.30;88.30;;;;;;5051058;28;20572;-62
2022/11/14 14:42:22;;;;;;;18.90;7.80;;;8.30;88.30;;;;;;5052294;28;20051;-60
2022/11/14 14:45:15;;;;;;;14.20;8.40;;;8.40;88.30;;;;;;5040723;28;20171;-58
2022/11/14 14:48:05;;;;;;;11.25;7.22;;;8.40;88.20;;;;;;5052482;28;20073;-60
2022/11/14 14:50:54;;;;;;;12.45;7.72;;;8.40;88.30;;;;;;5055150;28;20538;-58
2022/11/14 14:53:50;;;;;;;13.93;7.90;;;8.40;88.40;;;;;;5053919;28;20114;-60
2022/11/14 14:56:36;;;;;;;14.30;8.00;;;8.40;88.30;;;;;;5051382;28;20051;-59
2022/11/14 14:59:23;;;;;;;12.90;7.25;;;8.40;88.30;;;;;;5051802;28;20047;-60